Schrassig, Luxembourg
Current Conditions -  °F | °C
As of 4:20 AM on Saturday 22 Nov 2014 (Local Time) from ELLX Reporting Station
Overcast Overcast  
Wind Chill: 43°   Ceiling: 600
Heat Index: 43°   Visibility: 2.5mi
Dew Point: 41°   Wind: 1mph
Humidity: 93%   Direction: 110°ESE
Pressure: 30.06"   Gusts: NA
Location:  49.61°N, 6.26°E
Report Text: ELLX 220320Z 11001KT 4000 OVC006 06/05 Q1018 NOSIG
Loading
Personal Weather Stations






























Interactive Weather Map New forecast layout! Learn more

10-Day Weather Forecast

Advertisements
Track Severe Weather on mobile